createdAt,value
2017-11-15T00:02:00.317Z,101761.02
2017-11-15T00:04:27.353Z,101763.75
2017-11-15T00:06:54.145Z,101760.63
2017-11-15T00:09:21.266Z,101755.72
2017-11-15T00:11:48.649Z,101753.09
2017-11-15T00:14:15.503Z,101760.08
2017-11-15T00:16:42.360Z,101762.61
2017-11-15T00:19:09.380Z,101765.41
2017-11-15T00:21:36.232Z,101764.14
2017-11-15T00:24:03.098Z,101763.35
2017-11-15T00:26:29.957Z,101767.20
2017-11-15T00:28:56.784Z,101765.36
2017-11-15T00:31:23.776Z,101764.58
2017-11-15T00:33:50.765Z,101767.56
2017-11-15T00:36:18.333Z,101770.11
2017-11-15T00:38:45.955Z,101771.21
2017-11-15T00:41:12.762Z,101768.97
2017-11-15T00:43:39.620Z,101770.23
2017-11-15T00:46:06.449Z,101771.34
2017-11-15T00:48:34.463Z,101769.84
2017-11-15T00:51:01.288Z,101768.87
2017-11-15T00:53:28.132Z,101770.19
2017-11-15T00:55:54.941Z,101758.73
2017-11-15T00:58:21.767Z,101763.84
2017-11-15T01:00:48.659Z,101764.86
2017-11-15T01:03:15.513Z,101765.02
2017-11-15T01:05:42.325Z,101764.00
2017-11-15T01:08:09.886Z,101768.00
2017-11-15T01:10:36.761Z,101776.69
2017-11-15T01:13:04.336Z,101773.05
2017-11-15T01:15:31.980Z,101771.69
2017-11-15T01:17:58.817Z,101768.87
2017-11-15T01:20:25.660Z,101778.03
2017-11-15T01:22:52.512Z,101773.80
2017-11-15T01:25:19.436Z,101770.59
2017-11-15T01:27:46.288Z,101768.43
2017-11-15T01:30:13.161Z,101758.70
2017-11-15T01:32:39.999Z,101767.52
2017-11-15T01:35:06.871Z,101770.98
2017-11-15T01:37:33.741Z,101768.39
2017-11-15T01:40:00.578Z,101771.55
2017-11-15T01:42:27.425Z,101764.53
2017-11-15T01:44:54.305Z,101769.76
2017-11-15T01:47:21.226Z,101772.38
2017-11-15T01:49:48.789Z,101769.50
2017-11-15T01:52:15.674Z,101769.98
2017-11-15T01:54:42.578Z,101772.42
2017-11-15T01:57:09.516Z,101775.36
2017-11-15T01:59:36.478Z,101769.66
2017-11-15T02:02:03.429Z,101770.41
2017-11-15T02:04:30.309Z,101768.83
2017-11-15T02:06:57.182Z,101761.91
2017-11-15T02:09:24.087Z,101763.08
2017-11-15T02:11:50.979Z,101763.31
2017-11-15T02:14:17.876Z,101761.52
2017-11-15T02:16:44.751Z,101764.14
2017-11-15T02:19:11.664Z,101760.45
2017-11-15T02:21:38.589Z,101759.13
2017-11-15T02:24:05.474Z,101763.91
2017-11-15T02:26:33.085Z,101762.63
2017-11-15T02:28:59.997Z,101762.78
2017-11-15T02:31:26.900Z,101758.73
2017-11-15T02:33:53.809Z,101754.01
2017-11-15T02:36:20.733Z,101754.59
2017-11-15T02:38:47.617Z,101743.97
2017-11-15T02:41:14.525Z,101747.48
2017-11-15T02:43:42.183Z,101755.81
2017-11-15T02:46:09.075Z,101749.19
2017-11-15T02:48:36.731Z,101744.89
2017-11-15T02:51:03.709Z,101749.18
2017-11-15T02:53:31.372Z,101740.38
2017-11-15T02:55:58.290Z,101735.64
2017-11-15T02:58:25.167Z,101734.62
2017-11-15T03:00:52.079Z,101730.23
2017-11-15T03:03:18.949Z,101731.59
2017-11-15T03:05:46.576Z,101732.81
2017-11-15T03:08:13.453Z,101732.95
2017-11-15T03:10:40.312Z,101737.69
2017-11-15T03:13:07.235Z,101732.42
2017-11-15T03:15:34.143Z,101740.37
2017-11-15T03:18:01.021Z,101731.69
2017-11-15T03:20:27.959Z,101734.76
2017-11-15T03:22:54.807Z,101739.59
2017-11-15T03:25:21.709Z,101733.78
2017-11-15T03:27:49.324Z,101737.69
2017-11-15T03:30:16.173Z,101729.89
2017-11-15T03:32:43.018Z,101735.23
2017-11-15T03:35:10.604Z,101728.13
2017-11-15T03:37:38.537Z,101731.50
2017-11-15T03:40:05.393Z,101736.76
2017-11-15T03:42:32.229Z,101731.50
2017-11-15T03:44:59.068Z,101729.84
2017-11-15T03:47:26.652Z,101732.42
2017-11-15T03:49:53.536Z,101731.94
2017-11-15T03:52:20.381Z,101736.70
2017-11-15T03:54:47.279Z,101736.28
2017-11-15T03:57:14.120Z,101734.13
2017-11-15T03:59:40.952Z,101731.55
2017-11-15T04:02:08.514Z,101732.72
2017-11-15T04:04:35.346Z,101730.52
2017-11-15T04:07:02.154Z,101731.41
2017-11-15T04:09:29.725Z,101735.73
2017-11-15T04:11:57.280Z,101734.00
2017-11-15T04:14:24.136Z,101739.64
2017-11-15T04:16:50.990Z,101739.73
2017-11-15T04:19:17.825Z,101734.91
2017-11-15T04:21:44.663Z,101747.63
2017-11-15T04:24:11.525Z,101747.59
2017-11-15T04:26:38.413Z,101749.29
2017-11-15T04:29:05.315Z,101747.58
2017-11-15T04:31:32.173Z,101752.45
2017-11-15T04:33:59.000Z,101750.22
2017-11-15T04:36:25.905Z,101755.92
2017-11-15T04:38:53.558Z,101752.94
2017-11-15T04:41:20.435Z,101755.44
2017-11-15T04:43:47.260Z,101743.25
2017-11-15T04:46:14.147Z,101744.95
2017-11-15T04:48:40.974Z,101741.88
2017-11-15T04:51:07.813Z,101746.25
2017-11-15T04:53:35.377Z,101746.80
2017-11-15T04:56:02.239Z,101748.94
2017-11-15T04:58:29.064Z,101752.02
2017-11-15T05:00:55.879Z,101756.05
2017-11-15T05:03:22.715Z,101762.50
2017-11-15T05:05:49.516Z,101762.06
2017-11-15T05:08:16.392Z,101762.44
2017-11-15T05:10:43.209Z,101764.20
2017-11-15T05:13:10.781Z,101763.81
2017-11-15T05:15:38.398Z,101762.94
2017-11-15T05:18:05.251Z,101758.55
2017-11-15T05:20:32.168Z,101758.49
2017-11-15T05:22:59.088Z,101757.66
2017-11-15T05:25:25.943Z,101757.67
2017-11-15T05:27:52.789Z,101760.73
2017-11-15T05:30:19.589Z,101762.55
2017-11-15T05:32:46.474Z,101762.59
2017-11-15T05:35:13.355Z,101760.31
2017-11-15T05:37:40.947Z,101759.48
2017-11-15T05:40:07.760Z,101768.39
2017-11-15T05:42:34.613Z,101769.08
2017-11-15T05:45:01.452Z,101769.89
2017-11-15T05:47:28.283Z,101768.20
2017-11-15T05:49:55.852Z,101774.39
2017-11-15T05:52:22.657Z,101775.75
2017-11-15T05:54:49.541Z,101778.48
2017-11-15T05:57:16.392Z,101777.55
2017-11-15T05:59:43.235Z,101779.30
2017-11-15T06:02:10.076Z,101780.67
2017-11-15T06:04:36.913Z,101784.96
2017-11-15T06:07:03.757Z,101782.77
2017-11-15T06:09:30.694Z,101783.69
2017-11-15T06:11:57.487Z,101786.42
2017-11-15T06:14:24.421Z,101786.63
2017-11-15T06:16:51.959Z,101791.05
2017-11-15T06:19:19.610Z,101791.77
2017-11-15T06:21:46.469Z,101793.22
2017-11-15T06:24:13.385Z,101788.52
2017-11-15T06:26:40.199Z,101791.88
2017-11-15T06:29:07.007Z,101792.03
2017-11-15T06:31:33.829Z,101787.98
2017-11-15T06:46:46.437Z,101798.91
2017-11-15T06:49:13.285Z,101796.28
2017-11-15T06:51:41.020Z,101793.34
2017-11-15T06:54:07.824Z,101800.22
2017-11-15T06:56:35.452Z,101797.53
2017-11-15T06:59:03.613Z,101798.80
2017-11-15T07:01:30.908Z,101797.09
2017-11-15T07:03:57.976Z,101801.88
2017-11-15T07:06:24.813Z,101805.42
2017-11-15T07:08:51.660Z,101804.61
2017-11-15T07:11:19.263Z,101811.96
2017-11-15T07:13:46.146Z,101805.83
2017-11-15T07:16:13.016Z,101811.08
2017-11-15T07:18:39.939Z,101807.19
2017-11-15T07:21:06.785Z,101815.96
2017-11-15T07:23:34.376Z,101817.27
2017-11-15T07:26:01.214Z,101822.89
2017-11-15T07:28:28.824Z,101827.23
2017-11-15T07:30:55.793Z,101834.73
2017-11-15T07:33:22.647Z,101824.95
2017-11-15T07:35:49.482Z,101837.71
2017-11-15T07:38:17.129Z,101838.55
2017-11-15T07:40:44.017Z,101832.41
2017-11-15T07:43:11.648Z,101837.18
2017-11-15T07:45:38.541Z,101839.86
2017-11-15T07:48:05.365Z,101835.38
2017-11-15T07:50:32.252Z,101836.25
2017-11-15T07:52:59.116Z,101834.45
2017-11-15T07:55:26.051Z,101832.21
2017-11-15T07:57:52.895Z,101832.17
2017-11-15T08:00:19.749Z,101831.25
2017-11-15T08:02:46.595Z,101840.84
2017-11-15T08:05:14.166Z,101836.45
2017-11-15T08:07:41.020Z,101838.17
2017-11-15T08:10:07.870Z,101835.93
2017-11-15T08:12:34.782Z,101839.87
2017-11-15T08:15:01.660Z,101842.47
2017-11-15T08:17:28.510Z,101833.11
2017-11-15T08:19:56.153Z,101830.02
2017-11-15T08:22:23.013Z,101830.81
2017-11-15T08:24:49.849Z,101832.57
2017-11-15T08:27:16.691Z,101831.65
2017-11-15T08:29:43.526Z,101830.17
2017-11-15T08:32:10.341Z,101829.25
2017-11-15T08:34:37.230Z,101836.67
2017-11-15T08:37:04.835Z,101837.49
2017-11-15T08:39:31.705Z,101833.11
2017-11-15T08:41:58.533Z,101831.69
2017-11-15T08:44:26.162Z,101835.16
2017-11-15T08:46:53.111Z,101830.62
2017-11-15T08:49:19.975Z,101835.88
2017-11-15T08:51:46.904Z,101831.00
2017-11-15T08:54:14.546Z,101831.34
2017-11-15T08:56:41.428Z,101836.07
2017-11-15T08:59:08.324Z,101833.44
2017-11-15T09:01:35.205Z,101825.48
2017-11-15T09:04:02.093Z,101827.19
2017-11-15T09:06:28.987Z,101821.84
2017-11-15T09:08:56.593Z,101823.52
2017-11-15T09:11:23.464Z,101819.52
2017-11-15T09:13:50.312Z,101825.98
2017-11-15T09:16:17.165Z,101833.89
2017-11-15T09:18:45.090Z,101832.05
2017-11-15T09:21:11.962Z,101838.97
2017-11-15T09:23:38.826Z,101838.91
2017-11-15T09:26:05.821Z,101832.31
2017-11-15T09:28:32.655Z,101841.55
2017-11-15T09:30:59.508Z,101840.66
2017-11-15T09:33:26.401Z,101841.38
2017-11-15T09:35:54.016Z,101839.63
2017-11-15T09:38:20.845Z,101844.89
2017-11-15T09:40:48.448Z,101840.83
2017-11-15T09:43:15.273Z,101846.83
2017-11-15T09:45:42.143Z,101846.05
2017-11-15T09:48:08.979Z,101850.34
2017-11-15T09:50:35.916Z,101848.15
2017-11-15T09:53:02.820Z,101853.64
2017-11-15T09:55:29.672Z,101854.14
2017-11-15T09:57:56.513Z,101848.05
2017-11-15T10:00:23.351Z,101854.09
2017-11-15T10:02:50.219Z,101850.68
2017-11-15T10:05:17.157Z,101855.56
2017-11-15T10:07:44.032Z,101854.14
2017-11-15T10:10:10.938Z,101855.41
2017-11-15T10:12:37.800Z,101852.89
2017-11-15T10:15:04.716Z,101850.52
2017-11-15T10:17:31.579Z,101848.32
2017-11-15T10:19:58.495Z,101845.23
2017-11-15T10:22:25.350Z,101846.95
2017-11-15T10:24:52.192Z,101845.23
2017-11-15T10:27:19.027Z,101844.43
2017-11-15T10:29:45.925Z,101845.23
2017-11-15T10:32:12.828Z,101844.38
2017-11-15T10:34:40.460Z,101841.17
2017-11-15T10:37:07.327Z,101842.99
2017-11-15T10:39:34.292Z,101837.28
2017-11-15T10:42:01.328Z,101842.07
2017-11-15T10:44:34.142Z,101840.75
2017-11-15T10:47:01.044Z,101833.33
2017-11-15T10:49:27.895Z,101835.95
2017-11-15T10:51:54.726Z,101832.83
2017-11-15T10:54:21.714Z,101827.55
2017-11-15T10:56:48.609Z,101829.25
2017-11-15T10:59:15.516Z,101821.77
2017-11-15T11:01:42.503Z,101819.47
2017-11-15T11:04:10.598Z,101817.34
2017-11-15T11:06:37.534Z,101819.05
2017-11-15T11:09:04.465Z,101818.59
2017-11-15T11:11:31.397Z,101819.31
2017-11-15T11:13:58.297Z,101816.30
2017-11-15T11:16:25.174Z,101817.23
2017-11-15T11:18:52.812Z,101815.73
2017-11-15T11:21:19.771Z,101816.62
2017-11-15T11:23:47.420Z,101818.76
2017-11-15T11:26:14.329Z,101818.69
2017-11-15T11:28:41.278Z,101815.63
2017-11-15T11:31:08.992Z,101819.91
2017-11-15T11:33:35.834Z,101816.00
2017-11-15T11:36:03.518Z,101820.78
2017-11-15T11:38:30.396Z,101816.83
2017-11-15T11:40:57.324Z,101819.84
2017-11-15T11:43:24.952Z,101818.08
2017-11-15T11:45:52.527Z,101816.77
2017-11-15T11:48:19.469Z,101813.97
2017-11-15T11:50:46.375Z,101815.38
2017-11-15T11:53:13.243Z,101811.00
2017-11-15T11:55:40.638Z,101809.66
2017-11-15T11:58:07.634Z,101816.27
2017-11-15T12:00:34.746Z,101814.02
2017-11-15T12:03:01.632Z,101819.23
2017-11-15T12:05:28.519Z,101814.90
2017-11-15T12:07:55.473Z,101817.03
2017-11-15T12:10:23.101Z,101807.73
2017-11-15T12:12:49.951Z,101805.09
2017-11-15T12:15:17.584Z,101809.07
2017-11-15T12:17:45.499Z,101804.98
2017-11-15T12:20:12.404Z,101796.70
2017-11-15T12:22:40.191Z,101794.10
2017-11-15T12:25:07.094Z,101792.34
2017-11-15T12:27:33.959Z,101791.29
2017-11-15T12:30:00.906Z,101787.13
2017-11-15T12:32:28.608Z,101788.61
2017-11-15T12:34:55.488Z,101788.65
2017-11-15T12:37:22.357Z,101787.72
2017-11-15T12:39:49.300Z,101790.02
2017-11-15T12:42:16.177Z,101786.77
2017-11-15T12:44:43.062Z,101782.83
2017-11-15T12:47:09.947Z,101779.25
2017-11-15T12:49:36.865Z,101778.11
2017-11-15T12:52:03.753Z,101780.18
2017-11-15T12:54:30.731Z,101779.73
2017-11-15T12:56:57.681Z,101777.11
2017-11-15T12:59:24.570Z,101773.91
2017-11-15T13:01:51.421Z,101774.84
2017-11-15T13:04:18.285Z,101774.64
2017-11-15T13:06:45.181Z,101784.58
2017-11-15T13:09:12.041Z,101785.08
2017-11-15T13:11:38.913Z,101786.88
2017-11-15T13:14:05.809Z,101786.08
2017-11-15T13:16:32.735Z,101780.24
2017-11-15T13:18:59.650Z,101779.41
2017-11-15T13:21:26.994Z,101780.23
2017-11-15T13:23:53.869Z,101783.38
2017-11-15T13:26:20.797Z,101782.00
2017-11-15T13:28:47.718Z,101777.65
2017-11-15T13:31:14.683Z,101778.53
2017-11-15T13:33:41.552Z,101776.71
2017-11-15T13:36:08.503Z,101770.17
2017-11-15T13:38:35.665Z,101769.75
2017-11-15T13:41:02.551Z,101768.05
2017-11-15T13:43:30.179Z,101770.11
2017-11-15T13:45:57.063Z,101771.83
2017-11-15T13:48:23.925Z,101774.95
2017-11-15T13:50:50.799Z,101779.30
2017-11-15T13:53:17.675Z,101778.48
2017-11-15T13:55:45.327Z,101774.90
2017-11-15T13:58:12.240Z,101774.07
2017-11-15T14:00:39.140Z,101768.81
2017-11-15T14:03:05.979Z,101772.31
2017-11-15T14:05:32.816Z,101771.01
2017-11-15T14:08:00.429Z,101769.13
2017-11-15T14:10:27.320Z,101769.13
2017-11-15T14:12:54.158Z,101773.45
2017-11-15T14:15:21.014Z,101765.17
2017-11-15T14:17:47.902Z,101765.92
2017-11-15T14:20:14.825Z,101772.08
2017-11-15T14:22:41.724Z,101765.54
2017-11-15T14:25:08.580Z,101767.25
2017-11-15T14:27:35.420Z,101766.91
2017-11-15T14:30:02.304Z,101769.77
2017-11-15T14:32:29.203Z,101765.48
2017-11-15T14:34:56.820Z,101769.00
2017-11-15T14:37:23.686Z,101772.09
2017-11-15T14:39:51.068Z,101768.89
2017-11-15T14:42:18.087Z,101773.41
2017-11-15T14:44:46.163Z,101771.72
2017-11-15T14:47:13.090Z,101774.67
2017-11-15T14:49:40.020Z,101775.55
2017-11-15T14:52:08.360Z,101769.89
2017-11-15T14:54:35.886Z,101773.83
2017-11-15T14:57:09.630Z,101769.48
2017-11-15T14:59:36.481Z,101773.45
2017-11-15T15:02:03.911Z,101783.09
2017-11-15T15:04:32.108Z,101787.55
2017-11-15T15:06:58.941Z,101785.83
2017-11-15T15:09:25.812Z,101782.92
2017-11-15T15:11:53.842Z,101788.48
2017-11-15T15:14:21.183Z,101788.16
2017-11-15T15:16:49.004Z,101786.46
2017-11-15T15:19:21.333Z,101783.38
2017-11-15T15:21:54.655Z,101785.59
2017-11-15T15:24:27.043Z,101778.16
2017-11-15T15:26:54.092Z,101777.27
2017-11-15T15:29:21.583Z,101775.95
2017-11-15T15:31:51.686Z,101773.38
2017-11-15T15:34:18.566Z,101782.67
2017-11-15T15:36:45.770Z,101780.93
2017-11-15T15:39:18.197Z,101776.58
2017-11-15T15:41:49.178Z,101778.83
2017-11-15T15:44:17.005Z,101773.11
2017-11-15T15:46:49.178Z,101775.32
2017-11-15T15:49:17.446Z,101776.25
2017-11-15T15:51:44.413Z,101780.27
2017-11-15T15:54:11.345Z,101779.33
2017-11-15T15:56:40.032Z,101781.20
2017-11-15T15:59:07.291Z,101782.09
2017-11-15T16:01:34.985Z,101780.38
2017-11-15T16:04:08.166Z,101776.92
2017-11-15T16:06:42.262Z,101775.67
2017-11-15T16:09:15.514Z,101774.84
2017-11-15T16:11:43.928Z,101776.17
2017-11-15T16:14:14.174Z,101779.25
2017-11-15T16:16:53.359Z,101776.72
2017-11-15T16:19:20.491Z,101778.03
2017-11-15T16:21:53.703Z,101780.34
2017-11-15T16:24:21.495Z,101776.82
2017-11-15T16:26:54.843Z,101778.09
2017-11-15T16:29:22.945Z,101773.27
2017-11-15T16:31:50.153Z,101772.42
2017-11-15T16:34:18.533Z,101777.66
2017-11-15T16:36:46.900Z,101775.95
2017-11-15T16:39:20.861Z,101777.70
2017-11-15T16:41:48.634Z,101777.32
2017-11-15T16:44:23.447Z,101772.87
2017-11-15T16:46:52.211Z,101772.45
2017-11-15T16:49:20.025Z,101773.48
2017-11-15T16:51:47.965Z,101770.91
2017-11-15T16:54:22.476Z,101767.83
2017-11-15T16:56:49.732Z,101769.47
2017-11-15T16:59:18.815Z,101772.11
2017-11-15T17:01:47.805Z,101771.30
2017-11-15T17:04:15.654Z,101774.80
2017-11-15T17:06:49.284Z,101771.67
2017-11-15T17:09:21.691Z,101783.98
2017-11-15T17:11:48.622Z,101774.80
2017-11-15T17:14:18.572Z,101779.64
2017-11-15T17:16:45.777Z,101778.77
2017-11-15T17:19:13.195Z,101773.59
2017-11-15T17:21:41.850Z,101774.36
2017-11-15T17:24:14.388Z,101775.62
2017-11-15T17:26:42.202Z,101777.83
2017-11-15T17:29:11.152Z,101781.39
2017-11-15T17:31:38.938Z,101781.84
2017-11-15T17:34:06.299Z,101781.52
2017-11-15T17:36:33.337Z,101776.45
2017-11-15T17:39:01.669Z,101771.99
2017-11-15T17:41:29.510Z,101772.42
2017-11-15T17:43:57.056Z,101776.56
2017-11-15T17:46:27.007Z,101781.89
2017-11-15T17:48:54.986Z,101781.34
2017-11-15T17:51:27.303Z,101779.75
2017-11-15T17:54:07.015Z,101785.47
2017-11-15T17:56:40.060Z,101781.95
2017-11-15T17:59:07.707Z,101785.36
2017-11-15T18:01:36.918Z,101778.27
2017-11-15T18:04:05.199Z,101782.60
2017-11-15T18:06:34.077Z,101787.00
2017-11-15T18:09:01.303Z,101786.57
2017-11-15T18:11:31.414Z,101788.42
2017-11-15T18:13:58.467Z,101786.30
2017-11-15T18:16:31.433Z,101788.42
2017-11-15T18:18:58.378Z,101781.90
2017-11-15T18:21:25.512Z,101789.80
2017-11-15T18:23:52.759Z,101781.28
2017-11-15T18:26:20.741Z,101789.64
2017-11-15T18:28:47.708Z,101788.80
2017-11-15T18:31:14.590Z,101787.45
2017-11-15T18:33:42.655Z,101783.05
2017-11-15T18:36:10.109Z,101785.68
2017-11-15T18:38:37.014Z,101785.69
2017-11-15T18:41:11.235Z,101782.78
2017-11-15T18:43:40.291Z,101779.36
2017-11-15T18:46:08.544Z,101780.03
2017-11-15T18:48:37.390Z,101782.38
2017-11-15T18:51:06.885Z,101780.58
2017-11-15T18:53:35.681Z,101778.00
2017-11-15T18:56:09.949Z,101773.16
2017-11-15T18:58:39.476Z,101776.30
2017-11-15T19:01:08.376Z,101770.63
2017-11-15T19:03:38.884Z,101768.83
2017-11-15T19:06:12.938Z,101769.21
2017-11-15T19:08:44.791Z,101769.59
2017-11-15T19:11:13.810Z,101767.77
2017-11-15T19:13:43.463Z,101767.11
2017-11-15T19:16:13.026Z,101770.14
2017-11-15T19:18:48.233Z,101766.25
2017-11-15T19:21:23.736Z,101772.94
2017-11-15T19:23:52.927Z,101770.30
2017-11-15T19:26:22.682Z,101774.59
2017-11-15T19:28:51.822Z,101776.34
2017-11-15T19:31:28.946Z,101773.60
2017-11-15T19:34:00.586Z,101782.70
2017-11-15T19:36:31.293Z,101775.34
2017-11-15T19:39:01.161Z,101777.55
2017-11-15T19:41:36.179Z,101781.63
2017-11-15T19:44:06.008Z,101782.45
2017-11-15T19:46:35.239Z,101782.82
2017-11-15T19:49:10.181Z,101773.16
2017-11-15T19:51:39.359Z,101772.22
2017-11-15T19:54:11.143Z,101776.45
2017-11-15T19:56:42.094Z,101782.11
2017-11-15T19:59:14.868Z,101776.89
2017-11-15T20:01:48.480Z,101782.66
2017-11-15T20:04:22.508Z,101775.52
2017-11-15T20:06:53.312Z,101777.44
2017-11-15T20:09:22.757Z,101781.83
2017-11-15T20:11:57.193Z,101779.14
2017-11-15T20:14:26.248Z,101778.70
2017-11-15T20:16:57.010Z,101773.98
2017-11-15T20:19:27.058Z,101767.88
2017-11-15T20:21:56.439Z,101771.28
2017-11-15T20:24:25.985Z,101762.12
2017-11-15T20:26:56.943Z,101761.68
2017-11-15T20:29:27.017Z,101768.31
2017-11-15T20:31:59.503Z,101767.39
2017-11-15T20:34:32.628Z,101768.77
2017-11-15T20:37:03.281Z,101767.32
2017-11-15T20:39:35.498Z,101770.03
2017-11-15T20:42:07.137Z,101771.72
2017-11-15T20:44:40.095Z,101768.09
2017-11-15T20:47:09.981Z,101766.39
2017-11-15T20:49:39.308Z,101761.73
2017-11-15T20:52:13.509Z,101759.58
2017-11-15T20:54:46.016Z,101758.66
2017-11-15T20:57:15.029Z,101757.78
2017-11-15T20:59:44.291Z,101751.61
2017-11-15T21:02:13.463Z,101757.00
2017-11-15T21:04:42.893Z,101761.68
2017-11-15T21:07:13.435Z,101755.64
2017-11-15T21:09:42.400Z,101755.31
2017-11-15T21:12:15.314Z,101758.33
2017-11-15T21:14:44.420Z,101755.81
2017-11-15T21:17:12.008Z,101763.72
2017-11-15T21:19:41.086Z,101761.95
2017-11-15T21:22:15.425Z,101764.48
2017-11-15T21:24:44.220Z,101762.88
2017-11-15T21:27:13.346Z,101759.25
2017-11-15T21:29:41.120Z,101757.84
2017-11-15T21:32:08.939Z,101757.41
2017-11-15T21:34:36.602Z,101755.69
2017-11-15T21:37:04.213Z,101757.02
2017-11-15T21:39:32.951Z,101759.70
2017-11-15T21:42:05.869Z,101765.09
2017-11-15T21:44:38.765Z,101758.38
2017-11-15T21:47:06.528Z,101758.39
2017-11-15T21:49:37.667Z,101757.07
2017-11-15T21:52:04.716Z,101757.13
2017-11-15T21:54:31.931Z,101755.41
2017-11-15T21:57:01.995Z,101758.84
2017-11-15T21:59:29.117Z,101757.56
2017-11-15T22:01:56.057Z,101763.22
2017-11-15T22:04:22.995Z,101769.38
2017-11-15T22:06:51.665Z,101768.72
2017-11-15T22:09:18.602Z,101765.26
2017-11-15T22:11:51.406Z,101767.45
2017-11-15T22:14:19.036Z,101764.27
2017-11-15T22:16:46.051Z,101763.45
2017-11-15T22:19:13.901Z,101769.71
2017-11-15T22:21:43.320Z,101763.55
2017-11-15T22:24:10.679Z,101768.84
2017-11-15T22:26:37.586Z,101764.48
2017-11-15T22:29:05.402Z,101761.36
2017-11-15T22:31:32.333Z,101766.19
2017-11-15T22:34:00.908Z,101770.70
2017-11-15T22:36:33.090Z,101764.48
2017-11-15T22:39:00.016Z,101764.05
2017-11-15T22:41:26.925Z,101754.22
2017-11-15T22:43:53.783Z,101765.20
2017-11-15T22:46:26.148Z,101761.73
2017-11-15T22:48:54.381Z,101763.49
2017-11-15T22:51:22.073Z,101768.73
2017-11-15T22:53:52.029Z,101766.47
2017-11-15T22:56:21.920Z,101757.34
2017-11-15T22:58:52.009Z,101756.85
2017-11-15T23:01:18.819Z,101750.38
2017-11-15T23:03:50.745Z,101748.61
2017-11-15T23:06:18.173Z,101742.91
2017-11-15T23:08:46.243Z,101754.33
2017-11-15T23:11:13.069Z,101753.45
2017-11-15T23:13:40.230Z,101754.39
2017-11-15T23:16:07.236Z,101743.84
2017-11-15T23:18:35.362Z,101742.91
2017-11-15T23:21:02.872Z,101736.97
2017-11-15T23:23:35.132Z,101731.15
2017-11-15T23:26:07.168Z,101731.15
2017-11-15T23:28:34.702Z,101736.43
2017-11-15T23:31:02.811Z,101731.31
2017-11-15T23:33:29.957Z,101725.61
2017-11-15T23:35:57.274Z,101722.63
2017-11-15T23:38:24.147Z,101719.45
2017-11-15T23:40:56.861Z,101713.70
2017-11-15T23:43:24.441Z,101714.34
2017-11-15T23:45:51.623Z,101714.41
2017-11-15T23:48:19.053Z,101712.80
2017-11-15T23:50:45.974Z,101708.48
2017-11-15T23:53:12.859Z,101707.27
2017-11-15T23:55:39.810Z,101710.79
2017-11-15T23:58:06.729Z,101712.97
